Zenda, Kansas
Current Conditions -  °F | °C
As of 2:35 AM on Friday 31 Oct 2014 (Local Time) from KPTT Reporting Station
Clear Clear  
Wind Chill: 36°   Ceiling: Unl
Heat Index: 43°   Visibility: 10mi
Dew Point: 34°   Wind: 13mph
Humidity: 70%   Direction: 20°NNE
Pressure: 30.38"   Gusts: 23mph
Location:  37.44°N, 98.28°W
Report Text: KPTT 310735Z AUTO 02011G20KT 10SM CLR 06/01 A3038 RMK AO2
Loading
Personal Weather Stations






























Interactive Weather Map
Tropical Storm Tracking
New forecast layout! Learn more

10-Day Weather Forecast

Advertisements
Track Severe Weather on mobile